Wednesday, June 20, 2018, 5:16 PM EDT
Back to Local

KDOV, Dover Air Force Base

Location: Dover, DE, United States Lat: 39.133
Local Time: 5:16 PM EDT (21:16 GMT) Lon: -75.467
Time Zone: US/Eastern Elev: 29 ft

Show me the last for .
Show Decoded

2018-06-20 15:56 METAR KDOV 201956Z 14006KT 10SM FEW100 BKN170 OVC190 27/22 A2980 RMK AO2A SLP094
                 T02660220 $ =
2018-06-20 14:56 METAR KDOV 201856Z AUTO 11007KT 10SM FEW060 SCT170 SCT200 26/22 A2982 RMK AO2
                 SLP101 T02630221 $ =
2018-06-20 13:56 METAR KDOV 201756Z COR AUTO 10008KT 10SM FEW055 SCT090 SCT200 27/22 A2983 RMK
                 AO2 SLP104 T02650223 10283 20239 57015 $ COR 1802 =
2018-06-20 12:56 METAR KDOV 201656Z 12008KT 10SM FEW100 FEW110 BKN190 BKN210 28/23 A2984 RMK AO2A
                 SLP108 T02760225 $ =
2018-06-20 11:56 METAR KDOV 201556Z 10008KT 10SM SCT015 27/23 A2986 RMK AO2A SLP115 T02700228 $ =
2018-06-20 11:07 METAR KDOV 201507Z AUTO 11007KT 10SM SCT014 27/23 A2987 RMK AO2 SLP118 $ =
2018-06-20 11:01 METAR KDOV 201501Z 08006KT 10SM BKN013 BKN180 27/23 A2988 RMK SLP121 T02670225 $
                 =
2018-06-20 10:40 METAR KDOV 201440Z 07005KT 10SM FEW013 BKN020 26/23 A2987 RMK SLP118 $ =
2018-06-20 09:56 METAR KDOV 201356Z 09005KT 10SM BKN011 BKN020 25/23 A2987 RMK AO2A CIG 011V020
                 CIG 011 RWY19 SLP118 T02530226 $ =
2018-06-20 09:38 METAR KDOV 201338Z 09006KT 10SM BKN011 OVC018 25/23 A2988 RMK AO2A SLP121 $ =
2018-06-20 09:26 METAR KDOV 201326Z 14004KT 10SM OVC010 25/22 A2988 RMK AO2A CIG 008V010 CIG 009
                 RWY19 SLP121 $ =
2018-06-20 09:11 METAR KDOV 201311Z 12003KT 10SM OVC008 24/22 A2988 RMK AO2A SLP121 $ =
2018-06-20 08:56 METAR KDOV 201256Z 13004KT 10SM BKN007 BKN014 24/22 A2988 RMK AO2A OVC V BKN
                 SLP121 T02400222 $ =
2018-06-20 08:45 METAR KDOV 201245Z COR 11005KT 10SM BKN007 BKN011 24/22 A2988 RMK CIG 007V009
                 SLP121 $ COR 1256 =
2018-06-20 07:56 METAR KDOV 201156Z 08005KT 10SM SCT010 SCT150 24/22 A2988 RMK AO2A SLP121
                 T02410220 10241 20196 52008 $ =
2018-06-20 07:04 METAR KDOV 201104Z 34004KT 6SM BR FEW009 SCT120 21/20 A2987 RMK AO2A SLP118 $ =
2018-06-20 06:56 METAR KDOV 201056Z 36004KT 6SM BR FEW012 SCT120 21/20 A2987 RMK AO2A SLP118
                 T02090200 $ =
2018-06-20 05:56 METAR KDOV 200956Z COR AUTO 34005KT 6SM BR FEW012 SCT120 20/19 A2987 RMK AO2
                 SLP118 T01970192 $ COR 1000 =
2018-06-20 05:21 METAR KDOV 200921Z AUTO 34006KT 9SM SCT012 20/19 A2986 RMK AO2 SLP115 $ =
2018-06-20 05:01 METAR KDOV 200901Z AUTO 35004KT 9SM OVC012 21/20 A2985 RMK AO2 SLP111 $ =
2018-06-20 04:56 METAR KDOV 200856Z AUTO 34005KT 8SM OVC011 21/20 A2985 RMK AO2 SLP111 T02060199
                 53002 $ =
2018-06-20 04:20 METAR KDOV 200820Z AUTO 35004KT 6SM BR OVC011 22/21 A2985 RMK AO2 SLP111 $ =
2018-06-20 04:10 METAR KDOV 200810Z AUTO 34005KT 5SM BR BKN010 BKN060 22/21 A2986 RMK AO2 CIG
                 010V060 BKN010 V SCT SLP115 $ =
2018-06-20 04:00 METAR KDOV 200800Z AUTO 35005KT 4SM BR SCT010 BKN060 21/21 A2986 RMK AO2 SLP115
                 $ =
2018-06-20 03:56 METAR KDOV 200756Z AUTO 34005KT 4SM BR SCT060 21/20 A2985 RMK AO2 SLP111
                 T02070204 $ =
2018-06-20 02:56 METAR KDOV 200656Z AUTO 01004KT 4SM BR SCT060 21/20 A2985 RMK AO2 SLP111
                 T02100203 $ =
2018-06-20 01:56 METAR KDOV 200556Z AUTO 01004KT 5SM BR CLR 21/20 A2985 RMK AO2 SLP111 T02100203
                 10277 20210 55000 $ =
2018-06-20 00:56 METAR KDOV 200456Z AUTO 03003KT 9SM CLR 22/21 A2985 RMK AO2 SLP111 T02190209
                 403090218 $ =
2018-06-19 23:56 METAR KDOV 200356Z AUTO 07005KT 10SM FEW060 23/22 A2985 RMK AO2 SLP111 T02270215
                 $ =
2018-06-19 22:56 METAR KDOV 200256Z AUTO 05005KT 10SM CLR 23/22 A2985 RMK AO2 SLP111 T02300216
                 50009 $ =
2018-06-19 21:56 METAR KDOV 200156Z AUTO 34008KT 10SM SCT055 25/17 A2986 RMK AO2 SLP114 T02460173
                 $ =
2018-06-19 20:56 METAR KDOV 200056Z AUTO 33005KT 10SM CLR 26/19 A2983 RMK AO2 SLP104 T02550189 $
                 =
2018-06-19 19:56 METAR KDOV 192356Z AUTO 32004KT 10SM CLR 28/19 A2982 RMK AO2 SLP101 T02780190
                 10303 20278 53009 $ =
2018-06-19 18:56 METAR KDOV 192256Z AUTO 36005KT 10SM BKN070 29/19 A2980 RMK AO2 SLP094 T02900193
                 $ =
2018-06-19 17:56 METAR KDOV 192156Z AUTO 33008KT 10SM CLR 29/21 A2979 RMK AO2 SLP091 T02850205 $
                 =

Support USWX by starting your Amazon purchase here.